Time;durP1;ratioP1;P1;durP2;ratioP2;P2;SDS_P1;SDS_P2;PMS_P1;PMS_P2;Temp;Humidity;BMP_temperature;BMP_pressure;BME280_temperature;BME280_humidity;BME280_pressure;Samples;Min_cycle;Max_cycle;Signal;HPM_P1;HPM_P2
2023/11/07 00:00:19;;;;;;;15.25;6.35;;;8.40;99.90;;;;;;5068381;28;20119;-72
2023/11/07 00:02:45;;;;;;;9.68;5.70;;;8.40;99.90;;;;;;5070312;28;20045;-72
2023/11/07 00:05:10;;;;;;;12.65;6.20;;;8.40;99.90;;;;;;5068745;28;20028;-72
2023/11/07 00:07:36;;;;;;;14.40;6.75;;;8.50;99.90;;;;;;5070241;28;20036;-72
2023/11/07 00:10:03;;;;;;;12.90;5.68;;;8.50;99.90;;;;;;5067037;28;20506;-72
2023/11/07 00:12:29;;;;;;;16.55;6.70;;;8.40;99.90;;;;;;5069502;28;20101;-72
2023/11/07 00:14:56;;;;;;;13.10;7.28;;;8.50;99.90;;;;;;5068182;28;20036;-72
2023/11/07 00:17:22;;;;;;;14.07;7.57;;;8.50;99.90;;;;;;5101630;28;20036;-72
2023/11/07 00:19:48;;;;;;;11.35;7.10;;;8.50;99.90;;;;;;5066828;28;20123;-72
2023/11/07 00:22:13;;;;;;;15.18;7.95;;;8.60;99.90;;;;;;5068783;28;20466;-72
2023/11/07 00:24:40;;;;;;;13.13;8.02;;;8.60;99.90;;;;;;5069373;28;20036;-72
2023/11/07 00:27:05;;;;;;;16.48;8.43;;;8.60;99.90;;;;;;5069712;28;20052;-72
2023/11/07 00:29:31;;;;;;;13.10;7.65;;;8.70;99.90;;;;;;5066378;28;20048;-71
2023/11/07 00:31:57;;;;;;;17.75;8.38;;;8.60;99.90;;;;;;5069625;28;20277;-72
2023/11/07 00:34:23;;;;;;;16.48;8.45;;;8.70;99.90;;;;;;5069024;28;20045;-72
2023/11/07 00:36:50;;;;;;;12.85;8.18;;;8.70;99.90;;;;;;5099547;28;20040;-72
2023/11/07 00:39:16;;;;;;;17.35;8.25;;;8.70;99.90;;;;;;5068551;28;20040;-72
2023/11/07 00:41:43;;;;;;;17.90;9.13;;;8.70;99.90;;;;;;5067608;28;20045;-72
2023/11/07 00:44:09;;;;;;;13.23;8.35;;;8.70;99.90;;;;;;5067103;28;20047;-72
2023/11/07 00:46:35;;;;;;;13.38;7.93;;;8.70;99.90;;;;;;5067711;28;20045;-72
2023/11/07 00:49:00;;;;;;;12.43;8.23;;;8.80;99.90;;;;;;5065960;28;20047;-72
2023/11/07 00:51:26;;;;;;;17.75;8.70;;;8.70;99.90;;;;;;5067238;28;20055;-72
2023/11/07 00:53:52;;;;;;;14.50;9.07;;;8.70;99.90;;;;;;5067441;28;20494;-72
2023/11/07 00:56:18;;;;;;;16.38;9.63;;;8.80;99.90;;;;;;5070900;28;20072;-73
2023/11/07 00:58:46;;;;;;;16.48;9.15;;;8.70;99.90;;;;;;5069455;28;20105;-72
2023/11/07 01:01:11;;;;;;;13.50;8.60;;;8.70;99.90;;;;;;5067118;28;20044;-72
2023/11/07 01:03:37;;;;;;;16.13;8.80;;;9.00;99.90;;;;;;5066494;28;20044;-72
2023/11/07 01:06:04;;;;;;;15.43;9.10;;;8.80;99.90;;;;;;5068645;28;20462;-72
2023/11/07 01:08:29;;;;;;;13.98;9.23;;;8.70;99.90;;;;;;5069735;28;20882;-72
2023/11/07 01:10:55;;;;;;;15.70;9.30;;;8.70;99.90;;;;;;5069690;28;20043;-72
2023/11/07 01:13:22;;;;;;;14.13;9.40;;;8.80;99.90;;;;;;5068167;28;20044;-72
2023/11/07 01:15:47;;;;;;;16.10;9.10;;;8.80;99.90;;;;;;5068139;28;20041;-72
2023/11/07 01:18:13;;;;;;;14.52;7.97;;;8.80;99.90;;;;;;5064600;28;20028;-72
2023/11/07 01:20:39;;;;;;;12.20;8.52;;;8.80;99.90;;;;;;5066135;28;20488;-72
2023/11/07 01:23:04;;;;;;;11.00;7.57;;;8.80;99.90;;;;;;5068959;28;20769;-72
2023/11/07 01:25:30;;;;;;;15.00;8.32;;;8.80;99.90;;;;;;5067118;28;20474;-72
2023/11/07 01:27:55;;;;;;;15.70;7.47;;;8.80;99.90;;;;;;5097399;27;20040;-72
2023/11/07 01:30:24;;;;;;;11.15;7.93;;;8.80;99.90;;;;;;5068026;28;20441;-72
2023/11/07 01:32:50;;;;;;;16.80;8.15;;;8.80;99.90;;;;;;5068266;28;20684;-72
2023/11/07 01:35:20;;;;;;;12.65;7.70;;;9.00;99.90;;;;;;5096297;27;20482;-72
2023/11/07 01:37:45;;;;;;;10.85;7.25;;;8.80;99.90;;;;;;5068384;28;20033;-72
2023/11/07 01:40:12;;;;;;;13.07;8.00;;;8.80;99.90;;;;;;5067736;28;20048;-72
2023/11/07 01:42:50;;;;;;;11.63;6.80;;;8.90;99.90;;;;;;5066012;28;20505;-72
2023/11/07 01:45:16;;;;;;;11.52;6.47;;;8.90;99.90;;;;;;5067328;28;20505;-71
2023/11/07 01:47:44;;;;;;;14.13;6.53;;;8.80;99.90;;;;;;5066717;28;20044;-72
2023/11/07 01:50:11;;;;;;;9.10;5.68;;;8.80;99.90;;;;;;5066073;28;20048;-72
2023/11/07 01:52:41;;;;;;;13.27;6.97;;;8.80;99.90;;;;;;5066457;28;20055;-72
2023/11/07 01:55:10;;;;;;;10.55;5.90;;;8.70;99.90;;;;;;5067054;28;20063;-72
2023/11/07 01:57:37;;;;;;;13.98;6.13;;;8.70;99.90;;;;;;5067011;28;20037;-72
2023/11/07 02:00:11;;;;;;;13.13;5.47;;;8.70;99.90;;;;;;5066836;28;20501;-72
2023/11/07 02:02:41;;;;;;;12.55;5.40;;;8.60;99.90;;;;;;5067894;28;20243;-71
2023/11/07 02:05:09;;;;;;;13.32;5.18;;;8.60;99.90;;;;;;5094897;27;20056;-72
2023/11/07 02:07:35;;;;;;;13.68;5.75;;;8.60;99.90;;;;;;5069818;28;20036;-71
2023/11/07 02:10:01;;;;;;;9.13;5.60;;;8.60;99.90;;;;;;5067567;28;20048;-72
2023/11/07 02:12:27;;;;;;;11.50;5.43;;;8.70;99.90;;;;;;5065682;28;20410;-72
2023/11/07 02:14:52;;;;;;;10.13;5.43;;;8.50;99.90;;;;;;5062909;28;20087;-71
2023/11/07 02:17:19;;;;;;;9.30;4.90;;;8.60;99.90;;;;;;5067499;28;20040;-71
2023/11/07 02:19:44;;;;;;;12.73;5.43;;;8.60;99.90;;;;;;5067298;28;20043;-71
2023/11/07 02:22:10;;;;;;;14.27;5.15;;;8.60;99.90;;;;;;5065655;28;20037;-72
2023/11/07 02:24:36;;;;;;;15.25;5.55;;;8.50;99.90;;;;;;5067353;28;20040;-72
2023/11/07 02:27:02;;;;;;;10.18;4.57;;;8.60;99.90;;;;;;5068466;28;20055;-72
2023/11/07 02:29:28;;;;;;;11.88;4.45;;;8.60;99.90;;;;;;5068585;28;20499;-72
2023/11/07 02:31:54;;;;;;;14.05;5.00;;;8.60;99.90;;;;;;5067410;28;20036;-72
2023/11/07 02:34:20;;;;;;;8.50;4.88;;;8.60;99.90;;;;;;5067631;28;20493;-72
2023/11/07 02:36:45;;;;;;;8.95;4.32;;;8.60;99.90;;;;;;5068625;28;20090;-71
2023/11/07 02:39:12;;;;;;;11.23;4.75;;;8.60;99.90;;;;;;5062431;28;21752;-72
2023/11/07 02:41:38;;;;;;;10.70;5.20;;;8.60;99.90;;;;;;5067324;28;20036;-72
2023/11/07 02:44:04;;;;;;;10.10;3.88;;;8.60;99.90;;;;;;5096842;28;20070;-72
2023/11/07 02:46:30;;;;;;;9.65;4.40;;;8.50;99.90;;;;;;5068263;28;20059;-72
2023/11/07 02:48:56;;;;;;;10.40;4.22;;;8.50;99.90;;;;;;5065135;28;20404;-72
2023/11/07 02:51:23;;;;;;;12.25;4.28;;;8.60;99.90;;;;;;5068324;28;20053;-71
2023/11/07 02:53:50;;;;;;;11.95;4.70;;;8.50;99.90;;;;;;5098733;28;20082;-71
2023/11/07 02:56:17;;;;;;;10.18;3.97;;;8.50;99.90;;;;;;5070270;28;20113;-72
2023/11/07 02:58:43;;;;;;;12.93;3.78;;;8.50;99.90;;;;;;5069746;28;20128;-72
2023/11/07 03:01:09;;;;;;;7.03;4.07;;;8.50;99.90;;;;;;5070098;28;20166;-71
2023/11/07 03:03:35;;;;;;;10.70;4.18;;;8.50;99.90;;;;;;5068565;28;20048;-72
2023/11/07 03:06:01;;;;;;;12.70;4.15;;;8.40;99.90;;;;;;5068485;28;20673;-72
2023/11/07 03:08:27;;;;;;;9.32;3.90;;;8.50;99.90;;;;;;5070330;28;20044;-72
2023/11/07 03:10:53;;;;;;;12.75;4.10;;;8.50;99.90;;;;;;5069826;28;20051;-72
2023/11/07 03:13:20;;;;;;;12.82;4.72;;;8.50;99.90;;;;;;5070630;28;20072;-71
2023/11/07 03:15:48;;;;;;;7.13;3.38;;;8.40;99.90;;;;;;5072776;28;20596;-72
2023/11/07 03:18:14;;;;;;;10.73;3.50;;;8.40;99.90;;;;;;5068567;28;20048;-72
2023/11/07 03:20:40;;;;;;;10.05;4.03;;;8.40;99.90;;;;;;5067804;28;20101;-72
2023/11/07 03:23:06;;;;;;;7.57;2.92;;;8.40;99.90;;;;;;5069845;28;20109;-71
2023/11/07 03:25:32;;;;;;;8.98;4.05;;;8.40;99.90;;;;;;5101482;28;20574;-72
2023/11/07 03:27:57;;;;;;;9.52;3.90;;;8.40;99.90;;;;;;5069005;28;20078;-72
2023/11/07 03:30:23;;;;;;;5.25;2.88;;;8.40;99.90;;;;;;5067917;28;20043;-72
2023/11/07 03:32:48;;;;;;;11.18;3.92;;;8.60;99.90;;;;;;5068456;28;20098;-72
2023/11/07 03:35:14;;;;;;;10.52;3.35;;;8.40;99.90;;;;;;5069845;28;20502;-71
2023/11/07 03:37:40;;;;;;;11.43;3.15;;;8.40;99.90;;;;;;5071465;28;20041;-71
2023/11/07 03:40:06;;;;;;;6.90;3.25;;;8.50;99.90;;;;;;5070446;28;21685;-72
2023/11/07 03:42:32;;;;;;;9.25;3.33;;;8.40;99.90;;;;;;5069281;28;20045;-72
2023/11/07 03:44:58;;;;;;;11.60;3.78;;;8.50;99.90;;;;;;5071810;28;20037;-72
2023/11/07 03:47:24;;;;;;;9.48;3.78;;;8.40;99.90;;;;;;5068816;28;20040;-71
2023/11/07 03:49:51;;;;;;;12.70;3.92;;;8.40;99.90;;;;;;5069872;28;20043;-71
2023/11/07 03:52:17;;;;;;;10.50;4.05;;;8.70;99.90;;;;;;5100861;28;20049;-72
2023/11/07 03:54:42;;;;;;;7.82;3.33;;;8.40;99.90;;;;;;5069140;28;20491;-72
2023/11/07 03:57:08;;;;;;;8.85;4.57;;;8.40;99.90;;;;;;5101931;27;20044;-72
2023/11/07 03:59:34;;;;;;;8.70;4.00;;;8.50;99.90;;;;;;5070598;28;20029;-72
2023/11/07 04:02:02;;;;;;;11.20;4.90;;;8.40;99.90;;;;;;5071668;28;20036;-72
2023/11/07 04:04:28;;;;;;;10.20;4.00;;;8.50;99.90;;;;;;5068155;28;20052;-71
2023/11/07 04:06:54;;;;;;;11.07;4.20;;;8.50;99.90;;;;;;5067877;28;20040;-71
2023/11/07 04:09:21;;;;;;;11.85;4.10;;;8.50;99.90;;;;;;5069745;28;20043;-71
2023/11/07 04:11:46;;;;;;;9.27;3.90;;;8.50;99.90;;;;;;5070998;28;20043;-72
2023/11/07 04:14:13;;;;;;;9.10;4.28;;;8.50;99.90;;;;;;5069227;28;20029;-72
2023/11/07 04:16:39;;;;;;;13.85;4.88;;;8.50;99.90;;;;;;5067752;28;20050;-72
2023/11/07 04:19:04;;;;;;;14.75;4.40;;;8.40;99.90;;;;;;5068061;28;20040;-72
2023/11/07 04:21:30;;;;;;;11.13;4.13;;;8.50;99.90;;;;;;5069306;28;20052;-71
2023/11/07 04:23:56;;;;;;;11.60;4.53;;;8.50;99.90;;;;;;5066693;28;20039;-72
2023/11/07 04:26:21;;;;;;;9.88;4.47;;;8.50;99.90;;;;;;5066997;28;20064;-72
2023/11/07 04:28:47;;;;;;;10.75;4.85;;;8.60;99.90;;;;;;5050170;28;20036;-72
2023/11/07 04:31:13;;;;;;;7.95;5.13;;;8.50;99.90;;;;;;5066455;28;20041;-71
2023/11/07 04:33:38;;;;;;;10.93;4.18;;;8.60;99.90;;;;;;5068786;28;20044;-71
2023/11/07 04:36:05;;;;;;;6.32;3.90;;;8.60;99.90;;;;;;5061428;28;20040;-72
2023/11/07 04:38:31;;;;;;;8.77;4.10;;;8.60;99.90;;;;;;5062563;28;20047;-72
2023/11/07 04:40:57;;;;;;;7.70;4.65;;;8.60;99.90;;;;;;5065661;28;20402;-71
2023/11/07 04:43:22;;;;;;;6.32;4.18;;;8.60;99.90;;;;;;5064022;28;20032;-72
2023/11/07 04:45:48;;;;;;;10.77;4.57;;;8.60;99.90;;;;;;5065665;28;20087;-71
2023/11/07 04:48:14;;;;;;;11.77;5.28;;;8.60;99.90;;;;;;5063747;28;20072;-72
2023/11/07 04:50:40;;;;;;;9.68;4.95;;;8.60;99.90;;;;;;5065820;28;20119;-72
2023/11/07 04:53:07;;;;;;;9.35;4.93;;;8.50;99.90;;;;;;5065825;28;20249;-72
2023/11/07 04:55:33;;;;;;;9.73;4.40;;;8.60;99.90;;;;;;5099620;28;20044;-71
2023/11/07 04:58:01;;;;;;;13.32;4.10;;;8.60;99.90;;;;;;5065100;28;20036;-71
2023/11/07 05:00:27;;;;;;;8.90;3.75;;;8.60;99.90;;;;;;5067534;28;20048;-72
2023/11/07 05:02:52;;;;;;;10.15;3.95;;;8.50;99.90;;;;;;5067699;28;20036;-71
2023/11/07 05:05:18;;;;;;;9.25;3.95;;;8.50;99.90;;;;;;5070407;28;20040;-71
2023/11/07 05:07:45;;;;;;;11.55;3.42;;;8.60;99.90;;;;;;5069395;28;20067;-72
2023/11/07 05:10:12;;;;;;;8.40;3.70;;;8.60;99.90;;;;;;5068401;28;20056;-71
2023/11/07 05:12:38;;;;;;;10.02;3.58;;;8.50;99.90;;;;;;5066443;28;20057;-72
2023/11/07 05:15:05;;;;;;;8.30;3.40;;;8.50;99.90;;;;;;5068480;28;20040;-71
2023/11/07 05:17:31;;;;;;;9.27;3.97;;;8.50;99.90;;;;;;5067999;28;20051;-71
2023/11/07 05:19:57;;;;;;;10.20;3.42;;;8.50;99.90;;;;;;5064587;28;20048;-71
2023/11/07 05:22:23;;;;;;;13.05;4.30;;;8.50;99.90;;;;;;5064058;28;20680;-72
2023/11/07 05:24:51;;;;;;;9.85;3.72;;;8.60;99.90;;;;;;5071279;28;20041;-72
2023/11/07 05:27:17;;;;;;;12.55;3.55;;;8.50;99.90;;;;;;5065314;28;20060;-71
2023/11/07 05:29:43;;;;;;;10.75;3.10;;;8.50;99.90;;;;;;5061848;28;20048;-72
2023/11/07 05:32:08;;;;;;;7.03;2.95;;;8.40;99.90;;;;;;5064331;28;20048;-71
2023/11/07 05:34:39;;;;;;;7.18;3.30;;;8.50;99.90;;;;;;5064688;28;20037;-71
2023/11/07 05:37:05;;;;;;;12.23;3.67;;;8.50;99.90;;;;;;5066778;28;20054;-72
2023/11/07 05:39:30;;;;;;;7.35;2.65;;;8.50;99.90;;;;;;5063406;28;20538;-72
2023/11/07 05:41:56;;;;;;;11.25;2.92;;;8.50;99.90;;;;;;5064933;28;20632;-71
2023/11/07 05:44:22;;;;;;;10.63;3.63;;;8.50;99.90;;;;;;5063756;28;20123;-71
2023/11/07 05:46:49;;;;;;;10.32;4.03;;;8.50;99.90;;;;;;5062285;28;20491;-71
2023/11/07 05:49:16;;;;;;;10.35;4.10;;;8.50;99.90;;;;;;5060589;28;20044;-71
2023/11/07 05:51:42;;;;;;;10.27;3.72;;;8.50;99.90;;;;;;5064448;28;20140;-71
2023/11/07 05:54:09;;;;;;;7.72;3.20;;;8.60;99.90;;;;;;5062800;28;20076;-71
2023/11/07 05:56:35;;;;;;;8.77;3.25;;;8.50;99.90;;;;;;5064573;28;20110;-71
2023/11/07 05:59:03;;;;;;;8.35;3.45;;;8.40;99.90;;;;;;5067841;28;20090;-71
2023/11/07 06:01:28;;;;;;;7.38;3.33;;;8.40;99.90;;;;;;5064517;28;20052;-71
2023/11/07 06:03:54;;;;;;;10.77;4.60;;;8.40;99.90;;;;;;5064586;28;20395;-71
2023/11/07 06:06:20;;;;;;;6.47;3.63;;;8.40;99.90;;;;;;5068512;28;20115;-71
2023/11/07 06:08:45;;;;;;;8.55;3.75;;;8.60;99.90;;;;;;5096922;28;20040;-71
2023/11/07 06:11:11;;;;;;;7.90;3.47;;;8.30;99.90;;;;;;5065407;28;20084;-71
2023/11/07 06:13:37;;;;;;;8.13;3.65;;;8.40;99.90;;;;;;5064400;28;20036;-72
2023/11/07 06:16:06;;;;;;;9.05;4.43;;;8.50;99.90;;;;;;5065555;28;20490;-71
2023/11/07 06:18:32;;;;;;;9.18;3.83;;;8.40;99.90;;;;;;5067487;28;20446;-71
2023/11/07 06:20:58;;;;;;;8.57;4.22;;;8.30;99.90;;;;;;5067962;28;20048;-71
2023/11/07 06:23:24;;;;;;;6.78;3.70;;;8.40;99.90;;;;;;5064165;28;20032;-71
2023/11/07 06:25:50;;;;;;;7.72;4.25;;;8.30;99.90;;;;;;5100200;28;20490;-72
2023/11/07 06:28:15;;;;;;;8.43;4.20;;;8.40;99.90;;;;;;5066534;28;20044;-72
2023/11/07 06:30:42;;;;;;;8.00;3.38;;;8.30;99.90;;;;;;5065318;28;20636;-71
2023/11/07 06:33:09;;;;;;;9.13;3.33;;;8.30;99.90;;;;;;5065930;28;20068;-71
2023/11/07 06:35:34;;;;;;;5.95;3.33;;;8.30;99.90;;;;;;5064983;28;20047;-71
2023/11/07 06:38:00;;;;;;;8.88;3.45;;;8.30;99.90;;;;;;5066096;28;20048;-71
2023/11/07 06:40:26;;;;;;;7.88;3.55;;;8.30;99.90;;;;;;5066137;28;20394;-71
2023/11/07 06:42:52;;;;;;;8.70;3.47;;;8.30;99.90;;;;;;5064741;28;20071;-71
2023/11/07 06:45:18;;;;;;;5.50;3.10;;;8.30;99.90;;;;;;5065739;28;20052;-71
2023/11/07 06:47:45;;;;;;;8.25;3.53;;;8.30;99.90;;;;;;5060020;28;20068;-72
2023/11/07 06:50:14;;;;;;;7.63;3.03;;;8.30;99.90;;;;;;5066038;28;20060;-71
2023/11/07 06:52:51;;;;;;;9.05;3.53;;;8.30;99.90;;;;;;5064796;28;20032;-71
2023/11/07 06:55:21;;;;;;;8.63;4.22;;;8.30;99.90;;;;;;5064489;28;20099;-70
2023/11/07 06:57:48;;;;;;;6.07;3.65;;;8.20;99.90;;;;;;5066683;28;20068;-70
2023/11/07 07:00:14;;;;;;;10.07;3.50;;;8.20;99.90;;;;;;5067115;28;20040;-69
2023/11/07 07:02:41;;;;;;;8.63;3.63;;;8.20;99.90;;;;;;5064800;28;20662;-70
2023/11/07 07:05:12;;;;;;;5.05;2.95;;;8.20;99.90;;;;;;5063417;28;20044;-69
2023/11/07 07:07:40;;;;;;;7.72;3.20;;;8.20;99.90;;;;;;5066081;28;20045;-70
2023/11/07 07:10:08;;;;;;;7.53;3.78;;;8.20;99.90;;;;;;5066010;28;20131;-70
2023/11/07 07:12:37;;;;;;;5.90;2.90;;;8.20;99.90;;;;;;5066551;28;20045;-69
2023/11/07 07:15:06;;;;;;;10.93;4.13;;;8.30;99.90;;;;;;5068028;28;20028;-70
2023/11/07 07:17:32;;;;;;;9.18;3.42;;;8.30;99.90;;;;;;5047146;28;20032;-69
2023/11/07 07:19:57;;;;;;;9.02;3.25;;;8.30;99.90;;;;;;5064850;28;20072;-70
2023/11/07 07:22:27;;;;;;;9.30;3.30;;;8.30;99.90;;;;;;5080802;28;20083;-70
2023/11/07 07:24:59;;;;;;;8.27;3.13;;;8.30;99.90;;;;;;5065588;28;20506;-70
2023/11/07 07:27:27;;;;;;;7.53;2.72;;;8.30;99.90;;;;;;5066702;28;20051;-70
2023/11/07 07:29:59;;;;;;;9.32;3.28;;;8.40;99.90;;;;;;5064345;28;20048;-70
2023/11/07 07:32:28;;;;;;;6.25;2.75;;;8.30;99.90;;;;;;5058639;28;20071;-70
2023/11/07 07:34:54;;;;;;;9.07;3.45;;;8.40;99.90;;;;;;5066704;28;20051;-70
2023/11/07 07:37:20;;;;;;;6.78;3.25;;;8.40;99.90;;;;;;5067080;28;20036;-70
2023/11/07 07:39:50;;;;;;;7.35;3.30;;;8.40;99.90;;;;;;5097430;27;20048;-70
2023/11/07 07:42:17;;;;;;;7.90;3.15;;;8.40;99.90;;;;;;5069647;28;20118;-71
2023/11/07 07:44:43;;;;;;;4.85;3.00;;;8.50;99.90;;;;;;5069197;28;20062;-70
2023/11/07 07:47:09;;;;;;;6.88;2.60;;;8.50;99.90;;;;;;5069794;28;20137;-70
2023/11/07 07:49:36;;;;;;;6.30;2.83;;;8.50;99.90;;;;;;5069029;28;20064;-71
2023/11/07 07:52:02;;;;;;;6.47;2.72;;;8.50;99.90;;;;;;5069195;28;20060;-70
2023/11/07 07:54:29;;;;;;;12.38;4.53;;;8.50;99.90;;;;;;5071288;28;20033;-71
2023/11/07 07:56:57;;;;;;;8.70;2.80;;;8.40;99.90;;;;;;5071188;28;20140;-70
2023/11/07 07:59:23;;;;;;;6.60;3.15;;;8.50;99.90;;;;;;5070670;28;20048;-71
2023/11/07 08:01:55;;;;;;;7.82;3.40;;;8.50;99.90;;;;;;5069320;28;20045;-70
2023/11/07 08:04:22;;;;;;;8.93;3.72;;;8.60;99.90;;;;;;5071091;28;20114;-70
2023/11/07 08:06:48;;;;;;;6.97;3.22;;;8.60;99.90;;;;;;5071568;28;20048;-71
2023/11/07 08:09:14;;;;;;;5.65;3.55;;;8.60;99.90;;;;;;5069344;28;20048;-70
2023/11/07 08:11:41;;;;;;;12.10;3.20;;;8.70;99.90;;;;;;5068085;28;20135;-71
2023/11/07 08:14:07;;;;;;;7.35;3.17;;;8.70;99.90;;;;;;5096962;27;20546;-70
2023/11/07 08:16:33;;;;;;;8.57;3.45;;;8.80;99.90;;;;;;5071198;28;20131;-70
2023/11/07 08:18:59;;;;;;;7.45;2.83;;;8.80;99.90;;;;;;5060020;28;20036;-70
2023/11/07 08:21:25;;;;;;;6.78;3.40;;;8.90;99.90;;;;;;5066201;28;20090;-71
2023/11/07 08:23:51;;;;;;;9.88;3.15;;;8.90;99.90;;;;;;5063381;28;20044;-70
2023/11/07 08:26:17;;;;;;;6.80;2.95;;;8.80;99.90;;;;;;5068745;28;20044;-70
2023/11/07 08:28:43;;;;;;;4.90;2.38;;;9.00;99.90;;;;;;5066690;28;20151;-70
2023/11/07 08:31:11;;;;;;;9.73;3.55;;;8.90;99.90;;;;;;5068254;28;20078;-70
2023/11/07 08:33:38;;;;;;;6.88;3.85;;;8.90;99.90;;;;;;5065456;28;20119;-70
2023/11/07 08:36:04;;;;;;;10.00;3.85;;;9.00;99.90;;;;;;5064749;28;20033;-70
2023/11/07 08:38:30;;;;;;;7.28;3.05;;;9.00;99.90;;;;;;5066525;28;20040;-71
2023/11/07 08:40:56;;;;;;;5.20;3.30;;;9.00;99.90;;;;;;5064161;28;20052;-71
2023/11/07 08:43:22;;;;;;;10.85;3.45;;;9.10;99.90;;;;;;5065525;28;20116;-70
2023/11/07 08:45:49;;;;;;;8.02;3.33;;;9.10;99.90;;;;;;5066205;28;20044;-70
2023/11/07 08:48:14;;;;;;;7.32;3.65;;;9.10;99.90;;;;;;5064764;28;20056;-70
2023/11/07 08:50:40;;;;;;;6.68;3.05;;;9.30;99.90;;;;;;5064444;28;20537;-70
2023/11/07 08:53:06;;;;;;;6.25;3.22;;;9.10;99.90;;;;;;5063503;28;20059;-70
2023/11/07 08:55:31;;;;;;;7.55;3.40;;;9.20;99.90;;;;;;5067114;28;20040;-70
2023/11/07 08:57:57;;;;;;;5.60;3.45;;;9.30;99.90;;;;;;5067405;28;20037;-70
2023/11/07 09:00:26;;;;;;;5.55;3.20;;;9.20;99.90;;;;;;5062738;28;20047;-70
2023/11/07 09:02:53;;;;;;;6.45;3.65;;;9.30;99.90;;;;;;5064995;28;20048;-70
2023/11/07 09:05:19;;;;;;;6.30;3.55;;;9.40;99.90;;;;;;5068032;28;20517;-71
2023/11/07 09:07:46;;;;;;;8.13;3.05;;;9.40;99.90;;;;;;5059866;28;20127;-70
2023/11/07 09:10:12;;;;;;;3.58;2.92;;;9.40;99.90;;;;;;5067186;28;20049;-70
2023/11/07 09:12:40;;;;;;;6.55;3.33;;;9.40;99.90;;;;;;5065996;28;20455;-71
2023/11/07 09:15:13;;;;;;;8.52;3.67;;;9.50;99.90;;;;;;5063846;28;20512;-70
2023/11/07 09:17:42;;;;;;;5.00;3.80;;;9.50;99.90;;;;;;5065790;28;20076;-70
2023/11/07 09:20:11;;;;;;;4.90;3.50;;;9.60;99.90;;;;;;5063117;28;20448;-70
2023/11/07 09:22:38;;;;;;;5.15;3.50;;;9.60;99.90;;;;;;5097282;28;20117;-70
2023/11/07 09:25:06;;;;;;;7.03;4.15;;;9.60;99.90;;;;;;5065709;28;20048;-70
2023/11/07 09:27:33;;;;;;;8.25;4.78;;;9.70;99.90;;;;;;5065058;28;20175;-70
2023/11/07 09:29:59;;;;;;;5.47;3.72;;;9.60;99.90;;;;;;5062630;28;20056;-70
2023/11/07 09:32:26;;;;;;;5.63;4.47;;;9.70;99.90;;;;;;5062015;28;20106;-70
2023/11/07 09:34:55;;;;;;;6.10;3.90;;;9.70;99.90;;;;;;5063121;28;20032;-70
2023/11/07 09:37:21;;;;;;;6.72;3.88;;;9.60;99.90;;;;;;5064597;28;20047;-70
2023/11/07 09:39:47;;;;;;;4.53;3.70;;;9.60;99.90;;;;;;5062202;28;20044;-70
2023/11/07 09:42:12;;;;;;;6.20;4.55;;;9.60;99.90;;;;;;5065628;28;20047;-70
2023/11/07 09:44:39;;;;;;;7.00;4.15;;;9.60;99.90;;;;;;5063594;28;20045;-70
2023/11/07 09:47:06;;;;;;;6.88;4.45;;;9.60;99.90;;;;;;5042909;28;20044;-70
2023/11/07 09:49:34;;;;;;;5.82;3.95;;;9.60;99.90;;;;;;5061165;28;20044;-71
2023/11/07 09:52:04;;;;;;;7.82;4.15;;;9.80;99.90;;;;;;5061433;28;20044;-70
2023/11/07 09:54:32;;;;;;;4.50;3.47;;;9.80;99.90;;;;;;5066174;28;20037;-70
2023/11/07 09:57:05;;;;;;;8.45;4.68;;;9.90;99.90;;;;;;5065536;28;20036;-70
2023/11/07 09:59:38;;;;;;;6.68;4.72;;;9.90;99.90;;;;;;5065884;28;20033;-70
2023/11/07 10:02:06;;;;;;;4.75;3.80;;;10.00;99.90;;;;;;5099167;28;20044;-70
2023/11/07 10:04:34;;;;;;;7.47;3.70;;;10.20;99.90;;;;;;5077213;28;20052;-70
2023/11/07 10:07:00;;;;;;;7.38;3.88;;;10.40;99.90;;;;;;5068789;28;20103;-70
2023/11/07 10:09:29;;;;;;;7.32;3.65;;;10.50;99.90;;;;;;5050559;28;20502;-70
2023/11/07 10:11:56;;;;;;;5.70;3.92;;;10.60;99.90;;;;;;5069084;28;20067;-70
2023/11/07 10:14:22;;;;;;;7.60;4.20;;;10.50;99.90;;;;;;5067831;28;20127;-70
2023/11/07 10:16:53;;;;;;;4.82;3.25;;;10.60;99.90;;;;;;5068344;28;20055;-70
2023/11/07 10:19:21;;;;;;;8.05;3.38;;;10.70;99.90;;;;;;5063055;28;20040;-70
2023/11/07 10:21:46;;;;;;;5.80;3.97;;;10.60;99.90;;;;;;5065554;28;20075;-70
2023/11/07 10:24:12;;;;;;;6.30;3.33;;;10.80;99.90;;;;;;5068197;28;20032;-70
2023/11/07 10:26:58;;;;;;;8.32;3.50;;;10.80;99.90;;;;;;5067927;28;20409;-70
2023/11/07 10:29:30;;;;;;;11.43;4.57;;;10.70;99.90;;;;;;5065720;28;20127;-71
2023/11/07 10:32:04;;;;;;;4.72;3.05;;;10.70;99.90;;;;;;5067903;28;20040;-70
2023/11/07 10:34:33;;;;;;;5.65;2.97;;;10.70;99.90;;;;;;5064105;28;20376;-70
2023/11/07 10:36:59;;;;;;;4.20;2.55;;;10.70;99.90;;;;;;5068320;28;20375;-71
2023/11/07 10:39:30;;;;;;;5.38;2.60;;;10.60;99.90;;;;;;5068506;28;20394;-70
2023/11/07 10:41:56;;;;;;;5.13;2.92;;;10.70;99.90;;;;;;5066606;28;20049;-70
2023/11/07 10:44:28;;;;;;;5.38;3.22;;;10.80;99.90;;;;;;5065701;28;20094;-71
2023/11/07 10:46:57;;;;;;;6.30;3.10;;;10.80;99.90;;;;;;5068348;28;20044;-70
2023/11/07 10:49:23;;;;;;;5.80;3.20;;;10.90;99.90;;;;;;5066354;28;20036;-70
2023/11/07 10:51:49;;;;;;;7.07;3.35;;;10.90;99.90;;;;;;5064511;28;20131;-70
2023/11/07 10:54:19;;;;;;;7.50;3.00;;;11.00;99.90;;;;;;5060560;28;20490;-70
2023/11/07 10:56:46;;;;;;;9.10;3.88;;;11.00;99.90;;;;;;5066673;28;20490;-70
2023/11/07 10:59:11;;;;;;;5.07;3.30;;;11.10;99.90;;;;;;5067576;28;20044;-70
2023/11/07 11:01:40;;;;;;;5.90;3.28;;;11.10;99.90;;;;;;5067446;28;20042;-70
2023/11/07 11:04:11;;;;;;;8.32;4.65;;;11.10;99.90;;;;;;5065785;28;20048;-70
2023/11/07 11:06:41;;;;;;;4.43;3.17;;;11.10;99.90;;;;;;5097276;28;20044;-70
2023/11/07 11:09:10;;;;;;;7.32;3.55;;;11.00;99.90;;;;;;5063098;28;20048;-70
2023/11/07 11:11:37;;;;;;;5.28;3.22;;;11.10;99.90;;;;;;5065841;28;20461;-70
2023/11/07 11:14:08;;;;;;;5.03;2.78;;;11.20;99.90;;;;;;5067875;28;20040;-70
2023/11/07 11:16:38;;;;;;;5.13;2.63;;;11.20;99.90;;;;;;5069046;28;20032;-70
2023/11/07 11:19:13;;;;;;;3.67;3.00;;;11.30;99.90;;;;;;5068126;28;20033;-70
2023/11/07 11:21:56;;;;;;;8.00;2.60;;;11.30;99.90;;;;;;5072724;28;20040;-71
2023/11/07 11:24:22;;;;;;;6.68;2.53;;;11.30;99.90;;;;;;5070465;28;20310;-70
2023/11/07 11:26:54;;;;;;;6.13;3.00;;;11.40;99.90;;;;;;5068442;28;20044;-70
2023/11/07 11:29:27;;;;;;;3.90;2.83;;;11.50;99.90;;;;;;5071016;28;20055;-70
2023/11/07 11:31:54;;;;;;;9.02;3.25;;;11.60;99.90;;;;;;5073651;28;20527;-70
2023/11/07 11:34:29;;;;;;;6.55;2.70;;;11.80;99.90;;;;;;5067345;28;20072;-70
2023/11/07 11:36:59;;;;;;;6.82;2.78;;;11.80;99.90;;;;;;5068969;28;20474;-70
2023/11/07 11:39:31;;;;;;;4.22;2.30;;;11.80;99.90;;;;;;5073780;28;20048;-70
2023/11/07 11:41:58;;;;;;;5.38;2.40;;;11.70;99.90;;;;;;5061220;28;20052;-70
2023/11/07 11:44:24;;;;;;;2.95;2.33;;;11.50;99.90;;;;;;5071005;28;20433;-70
2023/11/07 11:46:56;;;;;;;7.28;2.50;;;11.50;99.90;;;;;;5070087;28;20607;-70
2023/11/07 11:49:23;;;;;;;6.95;2.80;;;11.40;99.90;;;;;;5066454;28;20128;-70
2023/11/07 11:51:51;;;;;;;6.00;3.03;;;11.40;99.90;;;;;;5072412;28;20032;-71
2023/11/07 11:54:22;;;;;;;5.05;2.60;;;11.40;99.90;;;;;;5073283;28;20067;-70
2023/11/07 11:56:48;;;;;;;7.45;2.20;;;11.30;99.90;;;;;;5101420;28;20160;-70
2023/11/07 11:59:15;;;;;;;4.75;2.55;;;11.40;99.90;;;;;;5067296;28;20577;-70
2023/11/07 12:01:58;;;;;;;5.97;2.05;;;11.40;99.90;;;;;;5067956;28;20060;-70
2023/11/07 12:04:32;;;;;;;4.43;2.05;;;11.40;99.90;;;;;;5099852;27;20499;-70
2023/11/07 12:07:10;;;;;;;5.55;2.58;;;11.30;99.90;;;;;;5073788;28;20036;-70
2023/11/07 12:09:40;;;;;;;6.28;2.95;;;11.30;99.90;;;;;;5074505;28;20036;-70
2023/11/07 12:12:07;;;;;;;5.35;2.00;;;11.30;99.90;;;;;;5073184;28;20059;-70
2023/11/07 12:14:33;;;;;;;4.07;1.92;;;11.30;99.90;;;;;;5075725;28;20040;-70
2023/11/07 12:17:00;;;;;;;5.47;2.10;;;11.20;99.90;;;;;;5072236;28;20047;-70
2023/11/07 12:19:26;;;;;;;4.43;2.05;;;11.10;99.90;;;;;;5069661;28;20037;-70
2023/11/07 12:21:53;;;;;;;7.30;2.35;;;11.10;99.90;;;;;;5071428;28;20048;-70
2023/11/07 12:24:20;;;;;;;4.28;2.00;;;11.00;99.90;;;;;;5069608;28;20256;-70
2023/11/07 12:26:46;;;;;;;4.88;1.70;;;11.00;99.90;;;;;;5065912;28;20044;-70
2023/11/07 12:29:12;;;;;;;4.53;2.42;;;10.90;99.90;;;;;;5071996;28;20037;-70
2023/11/07 12:31:39;;;;;;;6.90;2.50;;;10.80;99.90;;;;;;5072576;28;20167;-71
2023/11/07 12:34:06;;;;;;;3.88;2.28;;;10.80;99.90;;;;;;5053238;28;20048;-71
2023/11/07 12:36:37;;;;;;;8.57;3.05;;;10.70;99.90;;;;;;5068906;28;20036;-71
2023/11/07 12:39:05;;;;;;;6.72;3.22;;;10.70;99.90;;;;;;5070921;28;20394;-71
2023/11/07 12:41:33;;;;;;;5.28;2.92;;;10.70;99.90;;;;;;5072706;28;20089;-71
2023/11/07 12:44:10;;;;;;;5.50;3.17;;;10.80;99.90;;;;;;5067909;28;20040;-71
2023/11/07 12:46:38;;;;;;;4.20;2.13;;;10.70;99.90;;;;;;5065241;28;20179;-71
2023/11/07 12:49:04;;;;;;;5.30;2.58;;;10.90;99.90;;;;;;5068991;28;20044;-70